createdAt,value
2022-11-04T00:02:05.398Z,10.90
2022-11-04T00:04:34.141Z,10.90
2022-11-04T00:07:23.484Z,10.80
2022-11-04T00:09:51.435Z,10.90
2022-11-04T00:12:27.254Z,11.00
2022-11-04T00:15:15.497Z,10.90
2022-11-04T00:17:42.392Z,11.00
2022-11-04T00:20:28.075Z,10.90
2022-11-04T00:23:14.828Z,10.90
2022-11-04T00:26:00.321Z,11.00
2022-11-04T00:28:54.327Z,11.00
2022-11-04T00:31:39.850Z,10.90
2022-11-04T00:34:07.933Z,11.00
2022-11-04T00:36:35.901Z,10.90
2022-11-04T00:39:05.203Z,10.90
2022-11-04T00:41:33.073Z,10.80
2022-11-04T00:44:03.122Z,11.00
2022-11-04T00:46:33.825Z,10.80
2022-11-04T00:49:02.183Z,11.20
2022-11-04T00:51:30.351Z,10.80
2022-11-04T00:53:59.083Z,11.00
2022-11-04T00:56:28.373Z,11.20
2022-11-04T00:58:56.588Z,10.80
2022-11-04T01:01:24.548Z,10.90
2022-11-04T01:03:54.246Z,10.80
2022-11-04T01:06:24.199Z,10.70
2022-11-04T01:08:56.847Z,10.90
2022-11-04T01:11:25.240Z,10.70
2022-11-04T01:13:54.813Z,10.70
2022-11-04T01:16:23.505Z,10.80
2022-11-04T01:18:51.685Z,10.60
2022-11-04T01:21:20.712Z,10.70
2022-11-04T01:23:49.004Z,10.70
2022-11-04T01:26:19.015Z,10.50
2022-11-04T01:28:47.569Z,10.60
2022-11-04T01:31:18.323Z,10.80
2022-11-04T01:33:46.277Z,10.50
2022-11-04T01:36:14.555Z,10.50
2022-11-04T01:38:42.757Z,10.80
2022-11-04T01:41:17.665Z,10.50
2022-11-04T01:43:49.473Z,10.50
2022-11-04T01:46:32.809Z,10.60
2022-11-04T01:49:05.454Z,10.40
2022-11-04T01:51:36.613Z,10.50
2022-11-04T01:54:07.183Z,11.10
2022-11-04T01:56:35.690Z,10.40
2022-11-04T01:59:07.914Z,10.50
2022-11-04T02:01:37.791Z,10.50
2022-11-04T02:04:20.953Z,10.40
2022-11-04T02:06:49.768Z,10.60
2022-11-04T02:09:19.368Z,10.40
2022-11-04T02:12:04.764Z,10.70
2022-11-04T02:14:33.904Z,10.50
2022-11-04T02:17:11.568Z,10.30
2022-11-04T02:20:02.689Z,10.20
2022-11-04T02:22:53.933Z,10.40
2022-11-04T02:25:41.921Z,10.60
2022-11-04T02:28:27.925Z,10.50
2022-11-04T02:31:04.315Z,10.40
2022-11-04T02:33:40.319Z,10.20
2022-11-04T02:36:16.074Z,10.30
2022-11-04T02:38:51.125Z,10.20
2022-11-04T02:41:27.437Z,10.40
2022-11-04T02:44:05.767Z,10.20
2022-11-04T02:46:38.921Z,10.10
2022-11-04T02:49:11.980Z,10.10
2022-11-04T02:51:45.866Z,10.00
2022-11-04T02:54:18.078Z,10.10
2022-11-04T02:56:50.829Z,10.00
2022-11-04T02:59:24.134Z,10.00
2022-11-04T03:01:55.370Z,10.00
2022-11-04T03:04:29.373Z,10.00
2022-11-04T03:07:00.093Z,9.70
2022-11-04T03:09:30.067Z,9.80
2022-11-04T03:12:03.432Z,9.80
2022-11-04T03:14:36.947Z,9.90
2022-11-04T03:17:09.397Z,9.80
2022-11-04T03:19:40.673Z,10.10
2022-11-04T03:22:12.616Z,10.00
2022-11-04T03:24:41.524Z,9.70
2022-11-04T03:27:19.243Z,9.90
2022-11-04T03:29:53.984Z,9.70
2022-11-04T03:32:29.378Z,9.60
2022-11-04T03:34:57.469Z,9.70
2022-11-04T03:37:25.417Z,9.50
2022-11-04T03:39:53.297Z,10.10
2022-11-04T03:42:22.718Z,9.40
2022-11-04T03:44:52.386Z,9.60
2022-11-04T03:47:21.879Z,9.50
2022-11-04T03:49:53.430Z,9.50
2022-11-04T03:52:22.016Z,9.60
2022-11-04T03:54:50.112Z,9.40
2022-11-04T03:57:40.732Z,9.50
2022-11-04T04:00:12.641Z,9.50
2022-11-04T04:02:56.707Z,9.40
2022-11-04T04:05:31.833Z,9.30
2022-11-04T04:08:13.314Z,9.30
2022-11-04T04:10:48.942Z,9.30
2022-11-04T04:13:26.274Z,9.40
2022-11-04T04:15:59.990Z,9.50
2022-11-04T04:18:34.974Z,9.30
2022-11-04T04:21:08.481Z,9.40
2022-11-04T04:23:55.447Z,9.30
2022-11-04T04:26:43.048Z,9.50
2022-11-04T04:29:11.945Z,9.10
2022-11-04T04:31:50.595Z,9.40
2022-11-04T04:34:20.370Z,9.00
2022-11-04T04:36:53.712Z,8.90
2022-11-04T04:39:51.742Z,9.00
2022-11-04T04:42:38.201Z,9.00
2022-11-04T04:45:07.630Z,8.90
2022-11-04T04:47:43.512Z,9.00
2022-11-04T04:50:14.242Z,9.00
2022-11-04T04:52:46.097Z,8.90
2022-11-04T04:55:15.341Z,9.00
2022-11-04T04:57:43.441Z,9.00
2022-11-04T05:00:15.664Z,8.90
2022-11-04T05:02:43.835Z,8.80
2022-11-04T05:05:13.301Z,9.30
2022-11-04T05:07:41.328Z,9.10
2022-11-04T05:10:13.592Z,8.90
2022-11-04T05:13:00.123Z,8.90
2022-11-04T05:15:29.199Z,8.70
2022-11-04T05:17:58.514Z,8.60
2022-11-04T05:20:26.599Z,8.90
2022-11-04T05:22:56.067Z,8.90
2022-11-04T05:25:25.379Z,9.00
2022-11-04T05:27:53.304Z,8.70
2022-11-04T05:30:21.585Z,8.90
2022-11-04T05:32:49.457Z,8.80
2022-11-04T05:35:17.543Z,9.40
2022-11-04T05:37:45.772Z,9.00
2022-11-04T05:40:13.952Z,8.80
2022-11-04T05:42:43.168Z,8.80
2022-11-04T05:45:11.668Z,8.90
2022-11-04T05:47:39.628Z,9.00
2022-11-04T05:50:08.097Z,9.00
2022-11-04T05:52:36.005Z,8.90
2022-11-04T05:55:04.074Z,8.80
2022-11-04T05:57:31.960Z,8.90
2022-11-04T06:00:01.307Z,8.80
2022-11-04T06:02:29.294Z,8.70
2022-11-04T06:04:57.256Z,8.90
2022-11-04T06:07:25.104Z,9.10
2022-11-04T06:09:52.989Z,8.90
2022-11-04T06:12:20.849Z,9.10
2022-11-04T06:14:48.909Z,9.00
2022-11-04T06:17:20.186Z,8.90
2022-11-04T06:19:48.133Z,9.20
2022-11-04T06:22:17.580Z,8.90
2022-11-04T06:24:45.514Z,8.90
2022-11-04T06:27:13.999Z,8.90
2022-11-04T06:29:42.153Z,9.10
2022-11-04T06:32:10.819Z,8.70
2022-11-04T06:34:40.268Z,9.20
2022-11-04T06:37:08.421Z,8.90
2022-11-04T06:39:36.507Z,8.80
2022-11-04T06:42:04.903Z,8.80
2022-11-04T06:44:34.351Z,8.90
2022-11-04T06:47:02.841Z,8.80
2022-11-04T06:49:30.686Z,9.70
2022-11-04T06:52:01.220Z,8.70
2022-11-04T06:54:29.115Z,9.10
2022-11-04T06:56:57.002Z,8.80
2022-11-04T06:59:25.028Z,9.00
2022-11-04T07:01:53.262Z,8.90
2022-11-04T07:04:21.291Z,8.90
2022-11-04T07:06:49.346Z,8.90
2022-11-04T07:09:18.584Z,9.00
2022-11-04T07:11:46.752Z,9.00
2022-11-04T07:14:15.258Z,9.20
2022-11-04T07:16:43.128Z,9.00
2022-11-04T07:19:11.089Z,9.30
2022-11-04T07:21:38.991Z,9.10
2022-11-04T07:24:07.715Z,9.00
2022-11-04T07:26:36.936Z,9.10
2022-11-04T07:29:06.655Z,9.20
2022-11-04T07:31:34.576Z,9.20
2022-11-04T07:34:03.078Z,9.30
2022-11-04T07:36:31.453Z,9.20
2022-11-04T07:38:59.357Z,9.10
2022-11-04T07:41:27.260Z,10.40
2022-11-04T07:43:58.775Z,9.10
2022-11-04T07:46:26.741Z,9.30
2022-11-04T07:48:57.559Z,9.30
2022-11-04T07:51:25.924Z,9.30
2022-11-04T07:53:53.884Z,9.70
2022-11-04T07:56:23.956Z,9.50
2022-11-04T07:58:52.528Z,9.40
2022-11-04T08:01:23.802Z,9.60
2022-11-04T08:03:52.353Z,9.80
2022-11-04T08:06:22.091Z,9.60
2022-11-04T08:08:50.138Z,9.50
2022-11-04T08:11:20.684Z,9.70
2022-11-04T08:13:48.942Z,9.50
2022-11-04T08:16:19.080Z,9.60
2022-11-04T08:18:49.536Z,9.50
2022-11-04T08:21:17.835Z,9.50
2022-11-04T08:23:46.172Z,9.80
2022-11-04T08:26:16.657Z,9.60
2022-11-04T08:28:44.940Z,10.00
2022-11-04T08:31:16.648Z,9.80
2022-11-04T08:33:45.294Z,9.80
2022-11-04T08:36:17.724Z,10.10
2022-11-04T08:38:45.755Z,10.60
2022-11-04T08:41:15.786Z,10.00
2022-11-04T08:43:43.757Z,10.20
2022-11-04T08:46:12.459Z,10.30
2022-11-04T08:48:41.415Z,10.20
2022-11-04T08:51:15.617Z,10.20
2022-11-04T08:53:44.004Z,10.40
2022-11-04T08:56:13.957Z,10.50
2022-11-04T08:58:42.418Z,10.70
2022-11-04T09:01:11.158Z,10.70
2022-11-04T09:03:39.943Z,10.60
2022-11-04T09:06:09.253Z,10.70
2022-11-04T09:08:39.337Z,10.70
2022-11-04T09:11:08.450Z,10.70
2022-11-04T09:13:39.594Z,10.80
2022-11-04T09:16:09.558Z,10.70
2022-11-04T09:18:37.485Z,10.80
2022-11-04T09:21:07.096Z,10.80
2022-11-04T09:23:34.992Z,11.00
2022-11-04T09:26:07.800Z,11.10
2022-11-04T09:28:35.673Z,11.10
2022-11-04T09:31:06.984Z,11.60
2022-11-04T09:33:34.904Z,11.20
2022-11-04T09:36:02.929Z,11.20
2022-11-04T09:38:31.089Z,11.50
2022-11-04T09:41:00.504Z,11.60
2022-11-04T09:43:38.616Z,11.50
2022-11-04T09:46:06.949Z,11.70
2022-11-04T09:48:40.052Z,11.40
2022-11-04T09:51:16.633Z,13.50
2022-11-04T09:53:58.744Z,11.60
2022-11-04T09:56:31.374Z,12.00
2022-11-04T09:59:00.692Z,11.70
2022-11-04T10:01:34.651Z,11.70
2022-11-04T10:04:18.299Z,11.80
2022-11-04T10:07:06.003Z,11.50
2022-11-04T10:09:48.183Z,11.80
2022-11-04T10:12:31.155Z,11.80
2022-11-04T10:15:34.193Z,11.70
2022-11-04T10:18:15.371Z,11.80
2022-11-04T10:20:53.732Z,11.90
2022-11-04T10:23:23.970Z,11.80
2022-11-04T10:25:59.444Z,12.00
2022-11-04T10:28:36.006Z,12.00
2022-11-04T10:31:06.592Z,11.90
2022-11-04T10:33:38.727Z,12.00
2022-11-04T10:36:08.673Z,12.00
2022-11-04T10:38:40.546Z,12.00
2022-11-04T10:41:16.738Z,12.30
2022-11-04T10:43:44.720Z,12.00
2022-11-04T10:46:34.235Z,12.30
2022-11-04T10:49:21.034Z,12.10
2022-11-04T10:51:49.231Z,12.10
2022-11-04T10:54:17.219Z,12.20
2022-11-04T10:56:51.384Z,12.30
2022-11-04T10:59:25.666Z,12.30
2022-11-04T11:01:57.399Z,12.10
2022-11-04T11:04:28.478Z,12.20
2022-11-04T11:06:58.634Z,12.60
2022-11-04T11:09:29.941Z,12.20
2022-11-04T11:12:01.895Z,12.30
2022-11-04T11:14:35.709Z,12.40
2022-11-04T11:17:22.557Z,12.90
2022-11-04T11:19:55.848Z,12.40
2022-11-04T11:22:33.031Z,12.40
2022-11-04T11:25:23.183Z,12.50
2022-11-04T11:27:54.245Z,12.60
2022-11-04T11:30:31.910Z,12.80
2022-11-04T11:33:03.937Z,12.60
2022-11-04T11:35:41.434Z,12.70
2022-11-04T11:38:19.949Z,12.50
2022-11-04T11:41:10.870Z,12.40
2022-11-04T11:43:39.673Z,12.10
2022-11-04T11:46:08.026Z,12.40
2022-11-04T11:48:42.863Z,12.30
2022-11-04T11:51:14.008Z,12.20
2022-11-04T11:53:58.688Z,12.80
2022-11-04T11:56:58.754Z,12.50
2022-11-04T12:02:34.875Z,12.30
2022-11-04T12:10:56.067Z,12.20
2022-11-04T12:13:29.089Z,12.50
2022-11-04T12:16:18.388Z,12.50
2022-11-04T12:19:26.880Z,12.60
2022-11-04T12:22:03.739Z,12.60
2022-11-04T12:24:41.132Z,12.70
2022-11-04T12:27:18.032Z,12.60
2022-11-04T12:30:03.263Z,12.60
2022-11-04T12:32:41.295Z,12.80
2022-11-04T12:35:23.487Z,12.70
2022-11-04T12:38:04.063Z,12.60
2022-11-04T12:40:41.545Z,12.80
2022-11-04T12:43:21.447Z,12.90
2022-11-04T12:46:01.068Z,12.80
2022-11-04T12:48:57.396Z,13.00
2022-11-04T12:51:38.090Z,12.80
2022-11-04T12:54:32.915Z,12.90
2022-11-04T12:57:14.320Z,12.30
2022-11-04T12:59:54.580Z,12.10
2022-11-04T13:02:27.075Z,12.10
2022-11-04T13:05:03.141Z,12.10
2022-11-04T13:07:34.661Z,11.90
2022-11-04T13:10:07.645Z,12.20
2022-11-04T13:12:39.194Z,12.10
2022-11-04T13:15:16.540Z,12.00
2022-11-04T13:17:47.110Z,12.10
2022-11-04T13:20:23.039Z,12.20
2022-11-04T13:22:57.775Z,12.10
2022-11-04T13:25:34.843Z,11.80
2022-11-04T13:28:04.253Z,12.20
2022-11-04T13:30:38.495Z,11.80
2022-11-04T13:33:16.993Z,11.90
2022-11-04T13:35:56.029Z,11.80
2022-11-04T13:38:29.105Z,11.60
2022-11-04T13:41:16.158Z,11.80
2022-11-04T13:43:50.391Z,11.80
2022-11-04T13:46:24.807Z,11.80
2022-11-04T13:49:02.263Z,11.80
2022-11-04T13:51:40.562Z,11.80
2022-11-04T13:54:24.371Z,11.80
2022-11-04T13:57:05.613Z,11.80
2022-11-04T13:59:39.999Z,11.70
2022-11-04T14:02:42.397Z,11.60
2022-11-04T14:05:52.211Z,11.70
2022-11-04T14:08:20.489Z,11.70
2022-11-04T14:11:08.201Z,11.70
2022-11-04T14:14:02.652Z,11.90
2022-11-04T14:16:46.110Z,11.80
2022-11-04T14:19:59.452Z,11.80
2022-11-04T14:22:36.413Z,11.80
2022-11-04T14:25:21.476Z,11.90
2022-11-04T14:27:50.905Z,11.80
2022-11-04T14:30:35.353Z,11.70
2022-11-04T14:33:06.776Z,11.70
2022-11-04T14:35:35.484Z,12.00
2022-11-04T14:38:15.549Z,11.90
2022-11-04T14:40:50.867Z,11.80
2022-11-04T14:43:30.084Z,11.80
2022-11-04T14:46:02.100Z,11.70
2022-11-04T14:48:31.342Z,11.80
2022-11-04T14:50:59.670Z,12.00
2022-11-04T14:53:31.948Z,13.50
2022-11-04T14:56:07.072Z,11.80
2022-11-04T14:58:34.963Z,11.70
2022-11-04T15:01:05.171Z,11.70
2022-11-04T15:06:40.352Z,11.60
2022-11-04T15:09:21.717Z,11.70
2022-11-04T15:12:07.053Z,11.90
2022-11-04T15:14:38.055Z,11.90
2022-11-04T15:17:07.794Z,11.50
2022-11-04T15:19:36.954Z,11.60
2022-11-04T15:22:07.424Z,12.00
2022-11-04T15:24:36.523Z,11.60
2022-11-04T15:27:07.249Z,11.60
2022-11-04T15:29:35.357Z,11.40
2022-11-04T15:32:06.332Z,11.50
2022-11-04T15:34:37.243Z,11.50
2022-11-04T15:37:07.043Z,11.30
2022-11-04T15:39:38.811Z,11.50
2022-11-04T15:42:29.699Z,11.60
2022-11-04T15:44:57.692Z,11.50
2022-11-04T15:47:28.481Z,11.60
2022-11-04T15:50:16.486Z,12.60
2022-11-04T15:52:51.607Z,11.40
2022-11-04T15:55:22.284Z,11.60
2022-11-04T15:57:51.737Z,11.10
2022-11-04T16:00:25.884Z,11.60
2022-11-04T16:02:56.380Z,11.30
2022-11-04T16:05:28.636Z,11.50
2022-11-04T16:08:14.825Z,11.20
2022-11-04T16:10:43.984Z,11.40
2022-11-04T16:13:23.868Z,11.30
2022-11-04T16:16:09.495Z,11.20
2022-11-04T16:18:39.834Z,11.20
2022-11-04T16:21:12.270Z,11.20
2022-11-04T16:23:44.299Z,11.20
2022-11-04T16:26:13.129Z,10.90
2022-11-04T16:28:42.741Z,11.00
2022-11-04T16:31:26.285Z,11.00
2022-11-04T16:33:54.306Z,10.70
2022-11-04T16:36:34.020Z,10.60
2022-11-04T16:39:10.910Z,10.60
2022-11-04T16:41:41.216Z,10.50
2022-11-04T16:44:19.385Z,10.70
2022-11-04T16:46:47.802Z,10.50
2022-11-04T16:49:16.852Z,10.70
2022-11-04T16:51:46.627Z,10.30
2022-11-04T16:54:14.628Z,10.20
2022-11-04T16:56:42.598Z,10.80
2022-11-04T16:59:12.635Z,10.30
2022-11-04T17:01:41.870Z,10.10
2022-11-04T17:04:10.594Z,10.10
2022-11-04T17:06:39.376Z,10.20
2022-11-04T17:09:18.676Z,10.00
2022-11-04T17:11:46.870Z,10.10
2022-11-04T17:14:16.456Z,9.90
2022-11-04T17:16:44.901Z,10.40
2022-11-04T17:19:16.905Z,10.20
2022-11-04T17:21:45.856Z,10.00
2022-11-04T17:24:15.600Z,10.40
2022-11-04T17:26:43.688Z,9.90
2022-11-04T17:29:16.002Z,9.80
2022-11-04T17:31:45.366Z,9.80
2022-11-04T17:34:13.502Z,9.80
2022-11-04T17:36:41.529Z,9.90
2022-11-04T17:39:09.870Z,9.60
2022-11-04T17:41:56.893Z,10.00
2022-11-04T17:44:24.856Z,9.80
2022-11-04T17:46:53.069Z,9.60
2022-11-04T17:49:22.995Z,9.50
2022-11-04T17:51:53.831Z,9.50
2022-11-04T17:54:22.455Z,9.50
2022-11-04T17:56:52.524Z,9.40
2022-11-04T17:59:20.731Z,9.30
2022-11-04T18:01:49.286Z,9.40
2022-11-04T18:04:19.835Z,9.20
2022-11-04T18:06:47.983Z,9.20
2022-11-04T18:09:16.568Z,9.30
2022-11-04T18:12:02.996Z,9.20
2022-11-04T18:14:33.178Z,9.30
2022-11-04T18:17:01.115Z,8.90
2022-11-04T18:19:29.715Z,9.00
2022-11-04T18:21:57.666Z,9.00
2022-11-04T18:24:25.964Z,9.60
2022-11-04T18:26:54.256Z,9.00
2022-11-04T18:29:22.959Z,8.80
2022-11-04T18:31:52.236Z,9.10
2022-11-04T18:34:20.420Z,9.20
2022-11-04T18:36:49.121Z,8.80
2022-11-04T18:39:18.911Z,8.80
2022-11-04T18:41:47.526Z,9.10
2022-11-04T18:44:18.022Z,8.60
2022-11-04T18:46:46.543Z,8.90
2022-11-04T18:49:16.873Z,8.70
2022-11-04T18:51:45.230Z,8.60
2022-11-04T18:54:14.765Z,8.80
2022-11-04T18:56:43.857Z,8.70
2022-11-04T18:59:13.458Z,8.70
2022-11-04T19:01:42.340Z,8.70
2022-11-04T19:04:10.716Z,8.70
2022-11-04T19:06:44.932Z,8.60
2022-11-04T19:12:20.356Z,9.60
2022-11-04T19:14:49.219Z,9.80
2022-11-04T19:17:17.469Z,9.00
2022-11-04T19:19:45.953Z,9.20
2022-11-04T19:22:15.436Z,9.00
2022-11-04T19:24:43.789Z,9.80
2022-11-04T19:27:11.891Z,9.00
2022-11-04T19:29:39.976Z,9.10
2022-11-04T19:32:13.794Z,8.70
2022-11-04T19:34:42.198Z,9.20
2022-11-04T19:37:10.800Z,8.90
2022-11-04T19:39:40.641Z,8.80
2022-11-04T19:42:26.500Z,8.70
2022-11-04T19:44:54.412Z,9.00
2022-11-04T19:47:22.372Z,8.80
2022-11-04T19:49:50.344Z,8.70
2022-11-04T19:52:18.560Z,8.60
2022-11-04T19:54:47.995Z,9.30
2022-11-04T19:57:16.407Z,8.80
2022-11-04T19:59:44.493Z,8.80
2022-11-04T20:02:15.243Z,8.90
2022-11-04T20:04:43.397Z,8.70
2022-11-04T20:07:11.300Z,8.80
2022-11-04T20:09:39.548Z,9.10
2022-11-04T20:12:26.363Z,8.80
2022-11-04T20:14:56.149Z,9.10
2022-11-04T20:17:24.644Z,8.90
2022-11-04T20:19:52.759Z,8.80
2022-11-04T20:22:20.721Z,8.80
2022-11-04T20:24:48.584Z,8.70
2022-11-04T20:27:18.349Z,8.80
2022-11-04T20:29:46.425Z,9.40
2022-11-04T20:32:14.695Z,8.60
2022-11-04T20:34:42.688Z,9.00
2022-11-04T20:37:12.454Z,8.80
2022-11-04T20:39:40.488Z,9.10
2022-11-04T20:42:08.689Z,8.70
2022-11-04T20:44:37.979Z,8.70
2022-11-04T20:47:05.950Z,8.60
2022-11-04T20:49:33.866Z,8.80
2022-11-04T20:52:01.787Z,9.00
2022-11-04T20:54:29.739Z,8.80
2022-11-04T20:56:58.035Z,8.60
2022-11-04T20:59:25.903Z,8.70
2022-11-04T21:01:55.322Z,8.70
2022-11-04T21:04:23.374Z,8.80
2022-11-04T21:06:52.470Z,8.70
2022-11-04T21:09:22.259Z,8.60
2022-11-04T21:11:51.282Z,8.70
2022-11-04T21:14:20.283Z,8.60
2022-11-04T21:16:48.679Z,8.70
2022-11-04T21:19:19.068Z,8.70
2022-11-04T21:21:47.865Z,8.60
2022-11-04T21:24:19.702Z,8.50
2022-11-04T21:26:47.714Z,8.40
2022-11-04T21:29:19.341Z,8.30
2022-11-04T21:31:49.365Z,8.50
2022-11-04T21:34:18.761Z,8.30
2022-11-04T21:36:46.809Z,8.70
2022-11-04T21:39:14.914Z,8.70
2022-11-04T21:41:42.912Z,8.30
2022-11-04T21:44:13.484Z,8.40
2022-11-04T21:46:42.368Z,8.30
2022-11-04T21:49:12.712Z,8.20
2022-11-04T21:51:42.107Z,8.30
2022-11-04T21:54:10.344Z,8.50
2022-11-04T21:56:38.357Z,8.30
2022-11-04T21:59:06.692Z,8.30
2022-11-04T22:01:34.854Z,8.30
2022-11-04T22:04:03.626Z,8.10
2022-11-04T22:06:35.200Z,8.20
2022-11-04T22:09:07.945Z,8.10
2022-11-04T22:11:39.330Z,8.60
2022-11-04T22:14:09.300Z,8.00
2022-11-04T22:16:39.076Z,8.00
2022-11-04T22:19:10.493Z,8.00
2022-11-04T22:21:40.433Z,8.00
2022-11-04T22:24:12.435Z,8.00
2022-11-04T22:26:41.071Z,7.90
2022-11-04T22:29:09.530Z,7.90
2022-11-04T22:31:40.635Z,7.90
2022-11-04T22:34:09.887Z,7.80
2022-11-04T22:36:38.017Z,8.00
2022-11-04T22:39:10.484Z,8.20
2022-11-04T22:41:43.429Z,7.60
2022-11-04T22:44:11.640Z,7.60
2022-11-04T22:46:40.088Z,7.80
2022-11-04T22:49:08.495Z,8.10
2022-11-04T22:51:36.480Z,8.00
2022-11-04T22:54:08.241Z,7.70
2022-11-04T22:56:36.807Z,7.80
2022-11-04T22:59:06.475Z,7.50
2022-11-04T23:01:34.601Z,7.50
2022-11-04T23:04:03.064Z,7.50
2022-11-04T23:06:31.252Z,7.50
2022-11-04T23:09:00.679Z,7.70
2022-11-04T23:11:48.063Z,7.50
2022-11-04T23:14:37.131Z,7.40
2022-11-04T23:17:29.723Z,7.50
2022-11-04T23:19:57.617Z,7.30
2022-11-04T23:22:43.207Z,7.40
2022-11-04T23:25:11.739Z,7.20
2022-11-04T23:27:58.964Z,7.50
2022-11-04T23:30:30.731Z,7.60
2022-11-04T23:33:00.184Z,7.30
2022-11-04T23:35:47.073Z,7.60
2022-11-04T23:38:15.456Z,7.30
2022-11-04T23:41:04.076Z,7.10
2022-11-04T23:43:32.296Z,7.00
2022-11-04T23:46:19.420Z,7.00
2022-11-04T23:49:05.129Z,7.30
2022-11-04T23:51:50.656Z,7.40
2022-11-04T23:54:36.359Z,7.10
2022-11-04T23:57:22.628Z,6.90
